createdAt,value
2019-05-10T00:00:08.679Z,11.50
2019-05-10T00:02:55.880Z,11.50
2019-05-10T00:05:42.187Z,11.40
2019-05-10T00:08:28.931Z,11.40
2019-05-10T00:11:26.429Z,11.40
2019-05-10T00:14:09.090Z,11.50
2019-05-10T00:16:37.953Z,11.50
2019-05-10T00:19:06.955Z,11.60
2019-05-10T00:21:35.824Z,11.60
2019-05-10T00:24:04.726Z,11.60
2019-05-10T00:26:33.522Z,11.50
2019-05-10T00:29:02.434Z,11.50
2019-05-10T00:31:31.310Z,11.60
2019-05-10T00:34:00.192Z,11.60
2019-05-10T00:36:28.941Z,11.60
2019-05-10T00:38:57.736Z,11.50
2019-05-10T00:41:26.499Z,11.50
2019-05-10T00:43:55.316Z,11.50
2019-05-10T00:46:24.524Z,11.60
2019-05-10T00:48:53.515Z,11.60
2019-05-10T00:51:22.401Z,11.50
2019-05-10T00:53:51.247Z,11.60
2019-05-10T00:56:20.107Z,11.60
2019-05-10T00:58:48.963Z,11.60
2019-05-10T01:01:18.777Z,11.70
2019-05-10T01:03:48.018Z,11.80
2019-05-10T01:06:17.036Z,11.80
2019-05-10T01:08:45.852Z,11.80
2019-05-10T01:11:14.714Z,11.90
2019-05-10T01:13:43.483Z,12.00
2019-05-10T01:16:12.512Z,12.00
2019-05-10T01:18:41.608Z,12.10
2019-05-10T01:21:10.468Z,12.10
2019-05-10T01:23:39.214Z,12.20
2019-05-10T01:26:08.203Z,12.20
2019-05-10T01:28:37.058Z,12.20
2019-05-10T01:31:06.200Z,12.20
2019-05-10T01:33:34.976Z,12.30
2019-05-10T01:36:03.815Z,12.20
2019-05-10T01:38:32.675Z,12.20
2019-05-10T01:41:01.431Z,12.20
2019-05-10T01:43:30.228Z,12.20
2019-05-10T01:45:59.323Z,12.20
2019-05-10T01:48:28.120Z,12.10
2019-05-10T01:50:56.927Z,12.10
2019-05-10T01:53:25.789Z,12.10
2019-05-10T01:55:54.555Z,12.10
2019-05-10T01:58:23.341Z,12.10
2019-05-10T02:00:52.111Z,12.10
2019-05-10T02:03:21.207Z,12.10
2019-05-10T02:05:50.259Z,12.00
2019-05-10T02:08:19.086Z,12.00
2019-05-10T02:10:47.896Z,12.00
2019-05-10T02:13:17.025Z,12.10
2019-05-10T02:15:45.900Z,12.00
2019-05-10T02:18:15.051Z,12.10
2019-05-10T02:20:43.845Z,12.00
2019-05-10T02:23:12.648Z,11.90
2019-05-10T02:25:41.687Z,11.90
2019-05-10T02:28:10.516Z,11.90
2019-05-10T02:30:39.407Z,11.90
2019-05-10T02:33:08.533Z,11.80
2019-05-10T02:35:37.612Z,11.80
2019-05-10T02:38:06.404Z,11.80
2019-05-10T02:40:35.232Z,11.80
2019-05-10T02:43:04.064Z,11.70
2019-05-10T02:45:33.294Z,11.70
2019-05-10T02:48:02.208Z,11.70
2019-05-10T02:50:31.182Z,11.70
2019-05-10T02:53:00.396Z,11.70
2019-05-10T02:55:29.364Z,11.70
2019-05-10T02:57:58.725Z,11.70
2019-05-10T03:00:27.766Z,11.70
2019-05-10T03:02:57.773Z,11.60
2019-05-10T03:05:29.735Z,11.70
2019-05-10T03:07:58.919Z,11.70
2019-05-10T03:10:32.532Z,11.70
2019-05-10T03:13:03.372Z,11.70
2019-05-10T03:15:37.984Z,11.70
2019-05-10T03:18:07.096Z,11.70
2019-05-10T03:20:38.331Z,11.70
2019-05-10T03:23:10.591Z,11.70
2019-05-10T03:25:39.825Z,11.70
2019-05-10T03:28:08.619Z,11.70
2019-05-10T03:30:37.693Z,11.70
2019-05-10T03:33:06.541Z,11.70
2019-05-10T03:35:35.663Z,11.70
2019-05-10T03:38:04.644Z,11.70
2019-05-10T03:40:33.467Z,11.60
2019-05-10T03:43:02.747Z,11.60
2019-05-10T03:45:31.647Z,11.50
2019-05-10T03:48:00.649Z,11.60
2019-05-10T03:50:29.424Z,11.60
2019-05-10T03:52:58.708Z,11.60
2019-05-10T03:55:27.900Z,11.60
2019-05-10T03:57:56.705Z,11.60
2019-05-10T04:00:25.595Z,11.60
2019-05-10T04:02:54.455Z,11.60
2019-05-10T04:05:23.245Z,11.60
2019-05-10T04:07:52.096Z,11.60
2019-05-10T04:10:21.240Z,11.60
2019-05-10T04:12:50.547Z,11.70
2019-05-10T04:15:19.684Z,11.60
2019-05-10T04:17:50.295Z,11.60
2019-05-10T04:20:19.072Z,11.60
2019-05-10T04:22:47.897Z,11.60
2019-05-10T04:25:17.244Z,11.60
2019-05-10T04:27:46.027Z,11.50
2019-05-10T04:30:15.463Z,11.60
2019-05-10T04:32:45.060Z,11.60
2019-05-10T04:35:14.254Z,11.60
2019-05-10T04:37:43.555Z,11.50
2019-05-10T04:40:12.439Z,11.50
2019-05-10T04:42:41.552Z,11.60
2019-05-10T04:45:10.779Z,11.60
2019-05-10T04:47:39.524Z,11.60
2019-05-10T04:50:08.554Z,11.60
2019-05-10T04:52:37.357Z,11.50
2019-05-10T04:55:06.920Z,11.60
2019-05-10T04:57:49.116Z,11.60
2019-05-10T05:00:07.802Z,11.70
2019-05-10T05:02:37.196Z,11.70
2019-05-10T05:05:06.604Z,11.70
2019-05-10T05:07:35.626Z,11.70
2019-05-10T05:10:05.045Z,11.80
2019-05-10T05:12:33.871Z,11.90
2019-05-10T05:15:02.732Z,11.90
2019-05-10T05:17:31.836Z,12.00
2019-05-10T05:20:00.671Z,12.00
2019-05-10T05:22:29.450Z,12.00
2019-05-10T05:25:01.253Z,12.10
2019-05-10T05:27:28.822Z,12.10
2019-05-10T05:29:57.709Z,12.30
2019-05-10T05:32:26.877Z,12.40
2019-05-10T05:34:56.240Z,12.40
2019-05-10T05:37:24.994Z,12.40
2019-05-10T05:39:53.767Z,12.50
2019-05-10T05:42:27.871Z,12.50
2019-05-10T05:44:54.370Z,12.60
2019-05-10T05:47:23.296Z,12.70
2019-05-10T05:49:52.475Z,12.60
2019-05-10T05:52:21.596Z,12.70
2019-05-10T05:54:52.892Z,12.80
2019-05-10T05:57:22.154Z,12.90
2019-05-10T05:59:51.518Z,13.10
2019-05-10T06:02:20.370Z,13.20
2019-05-10T06:04:49.223Z,13.20
2019-05-10T06:07:18.091Z,13.40
2019-05-10T06:09:47.039Z,13.50
2019-05-10T06:12:15.936Z,13.60
2019-05-10T06:14:49.911Z,13.70
2019-05-10T06:17:15.285Z,13.70
2019-05-10T06:19:44.597Z,13.80
2019-05-10T06:22:13.850Z,13.90
2019-05-10T06:24:46.743Z,14.10
2019-05-10T06:27:13.248Z,14.30
2019-05-10T06:29:43.169Z,14.50
2019-05-10T06:32:12.123Z,14.70
2019-05-10T06:34:41.042Z,14.90
2019-05-10T06:37:09.888Z,14.90
2019-05-10T06:39:38.709Z,15.10
2019-05-10T06:42:07.480Z,15.00
2019-05-10T06:44:36.272Z,15.00
2019-05-10T06:47:08.171Z,14.90
2019-05-10T06:49:41.637Z,14.70
2019-05-10T06:52:06.375Z,14.50
2019-05-10T06:54:35.188Z,14.30
2019-05-10T06:57:04.040Z,14.10
2019-05-10T06:59:32.872Z,13.90
2019-05-10T07:02:01.686Z,13.80
2019-05-10T07:04:35.102Z,13.70
2019-05-10T07:07:01.140Z,13.50
2019-05-10T07:09:30.264Z,13.50
2019-05-10T07:11:59.146Z,13.40
2019-05-10T07:14:28.036Z,13.30
2019-05-10T07:17:02.820Z,13.30
2019-05-10T07:19:28.897Z,13.30
2019-05-10T07:21:57.883Z,13.30
2019-05-10T07:24:27.094Z,13.30
2019-05-10T07:26:56.472Z,13.30
2019-05-10T07:29:30.119Z,13.30
2019-05-10T07:31:56.995Z,13.40
2019-05-10T07:34:25.802Z,13.50
2019-05-10T07:36:54.660Z,13.70
2019-05-10T07:39:23.567Z,13.70
2019-05-10T07:41:52.368Z,13.70
2019-05-10T07:44:21.267Z,13.80
2019-05-10T07:46:53.930Z,13.70
2019-05-10T07:49:23.970Z,13.70
2019-05-10T07:51:51.348Z,13.70
2019-05-10T07:54:20.194Z,13.70
2019-05-10T07:56:48.974Z,13.70
2019-05-10T07:59:21.976Z,13.80
2019-05-10T08:01:49.261Z,13.80
2019-05-10T08:04:19.852Z,13.70
2019-05-10T08:06:51.862Z,13.60
2019-05-10T08:09:19.497Z,13.50
2019-05-10T08:11:48.683Z,13.40
2019-05-10T08:14:19.317Z,13.40
2019-05-10T08:16:49.857Z,13.30
2019-05-10T08:19:18.710Z,13.20
2019-05-10T08:21:48.695Z,13.10
2019-05-10T08:24:18.003Z,13.20
2019-05-10T08:26:46.839Z,13.30
2019-05-10T08:29:17.023Z,13.40
2019-05-10T08:31:52.716Z,13.60
2019-05-10T08:34:17.051Z,13.70
2019-05-10T08:36:47.627Z,13.70
2019-05-10T08:39:16.486Z,13.90
2019-05-10T08:41:46.034Z,13.90
2019-05-10T08:44:19.762Z,14.10
2019-05-10T08:46:46.593Z,14.10
2019-05-10T08:49:15.419Z,14.20
2019-05-10T08:51:49.097Z,14.40
2019-05-10T08:54:14.732Z,14.50
2019-05-10T08:56:46.679Z,14.60
2019-05-10T08:59:16.377Z,14.70
2019-05-10T09:01:50.132Z,14.70
2019-05-10T09:04:15.507Z,14.90
2019-05-10T09:06:47.556Z,15.00
2019-05-10T09:09:16.423Z,15.20
2019-05-10T09:11:45.561Z,15.20
2019-05-10T09:14:19.728Z,15.40
2019-05-10T09:16:56.316Z,15.80
2019-05-10T09:19:18.690Z,16.10
2019-05-10T09:21:49.602Z,16.20
2019-05-10T09:24:17.197Z,17.20
2019-05-10T09:26:47.004Z,18.40
2019-05-10T09:29:16.463Z,19.40
2019-05-10T09:31:50.438Z,20.00
2019-05-10T09:34:15.663Z,20.80
2019-05-10T09:36:47.029Z,21.10
2019-05-10T09:39:21.478Z,21.50
2019-05-10T09:41:45.740Z,20.90
2019-05-10T09:44:14.569Z,20.00
2019-05-10T09:46:43.343Z,19.80
2019-05-10T09:49:17.585Z,19.50
2019-05-10T09:51:42.676Z,18.90
2019-05-10T09:54:11.760Z,18.80
2019-05-10T09:56:44.336Z,19.00
2019-05-10T09:59:11.333Z,18.80
2019-05-10T10:01:40.373Z,18.30
2019-05-10T10:04:09.384Z,18.20
2019-05-10T10:06:41.996Z,18.30
2019-05-10T10:09:11.200Z,18.40
2019-05-10T10:11:39.527Z,18.20
2019-05-10T10:14:10.139Z,18.00
2019-05-10T10:16:38.751Z,17.90
2019-05-10T10:19:07.511Z,17.70
2019-05-10T10:21:38.946Z,17.40
2019-05-10T10:24:15.929Z,17.10
2019-05-10T10:26:37.913Z,16.70
2019-05-10T10:29:07.418Z,16.40
2019-05-10T10:31:46.530Z,16.10
2019-05-10T10:34:07.731Z,16.10
2019-05-10T10:36:40.205Z,16.00
2019-05-10T10:39:07.626Z,15.90
2019-05-10T10:41:36.415Z,15.90
2019-05-10T10:44:08.401Z,16.10
2019-05-10T10:46:37.340Z,16.20
2019-05-10T10:49:06.327Z,16.40
2019-05-10T10:51:35.184Z,16.60
2019-05-10T10:54:03.990Z,17.40
2019-05-10T10:56:32.748Z,18.20
2019-05-10T10:59:01.804Z,18.60
2019-05-10T11:01:46.192Z,18.60
2019-05-10T11:04:03.694Z,18.50
2019-05-10T11:06:32.333Z,18.40
2019-05-10T11:09:01.879Z,18.30
2019-05-10T11:11:38.633Z,17.80
2019-05-10T11:14:07.059Z,17.50
2019-05-10T11:16:31.981Z,17.30
2019-05-10T11:19:03.617Z,17.10
2019-05-10T11:21:33.379Z,17.00
2019-05-10T11:24:01.779Z,16.90
2019-05-10T11:26:32.820Z,17.00
2019-05-10T11:29:01.363Z,16.70
2019-05-10T11:31:31.174Z,16.60
2019-05-10T11:34:01.545Z,16.80
2019-05-10T11:36:31.314Z,17.00
2019-05-10T11:39:01.565Z,17.00
2019-05-10T11:41:31.418Z,17.00
2019-05-10T11:44:05.591Z,16.90
2019-05-10T11:46:31.115Z,17.00
2019-05-10T11:49:01.792Z,17.00
2019-05-10T11:51:31.583Z,16.90
2019-05-10T11:54:00.584Z,17.00
2019-05-10T11:56:32.052Z,17.30
2019-05-10T11:59:02.513Z,17.40
2019-05-10T12:01:31.363Z,17.50
2019-05-10T12:04:04.731Z,17.60
2019-05-10T12:06:32.012Z,17.80
2019-05-10T12:09:04.390Z,18.10
2019-05-10T12:11:33.839Z,18.50
2019-05-10T12:14:02.619Z,18.60
2019-05-10T12:16:33.367Z,18.40
2019-05-10T12:19:10.560Z,18.30
2019-05-10T12:21:33.390Z,18.00
2019-05-10T12:24:10.316Z,18.10
2019-05-10T12:27:13.964Z,18.20
2019-05-10T12:29:12.431Z,18.00
2019-05-10T12:31:35.019Z,17.90
2019-05-10T12:34:08.935Z,17.70
2019-05-10T12:36:35.050Z,17.50
2019-05-10T12:39:05.636Z,17.40
2019-05-10T12:41:39.648Z,17.40
2019-05-10T12:44:07.487Z,17.20
2019-05-10T12:46:38.768Z,17.10
2019-05-10T12:49:06.224Z,17.00
2019-05-10T12:51:35.236Z,17.10
2019-05-10T12:54:04.031Z,17.30
2019-05-10T12:56:34.802Z,17.40
2019-05-10T12:59:03.530Z,17.50
2019-05-10T13:01:33.295Z,17.50
2019-05-10T13:04:07.449Z,17.50
2019-05-10T13:06:32.645Z,17.60
2019-05-10T13:09:01.461Z,17.70
2019-05-10T13:11:30.352Z,17.80
2019-05-10T13:14:00.920Z,18.00
2019-05-10T13:16:29.577Z,17.90
2019-05-10T13:18:58.592Z,17.90
2019-05-10T13:21:30.135Z,18.10
2019-05-10T13:23:57.843Z,18.20
2019-05-10T13:26:26.663Z,18.10
2019-05-10T13:28:55.643Z,18.10
2019-05-10T13:31:24.371Z,17.90
2019-05-10T13:33:53.138Z,17.70
2019-05-10T13:36:22.044Z,17.80
2019-05-10T13:38:50.894Z,17.80
2019-05-10T13:41:24.071Z,17.60
2019-05-10T13:43:50.175Z,17.60
2019-05-10T13:46:19.187Z,17.80
2019-05-10T13:48:47.992Z,17.80
2019-05-10T13:51:16.789Z,17.60
2019-05-10T13:53:45.721Z,17.50
2019-05-10T13:56:14.752Z,17.40
2019-05-10T13:58:43.480Z,17.40
2019-05-10T14:01:13.578Z,17.30
2019-05-10T14:03:46.460Z,17.30
2019-05-10T14:06:13.651Z,17.30
2019-05-10T14:08:48.032Z,17.30
2019-05-10T14:11:12.896Z,17.20
2019-05-10T14:13:43.288Z,17.20
2019-05-10T14:16:18.330Z,17.20
2019-05-10T14:18:42.701Z,17.20
2019-05-10T14:21:11.472Z,17.20
2019-05-10T14:23:40.308Z,17.20
2019-05-10T14:26:15.709Z,17.30
2019-05-10T14:28:39.682Z,17.30
2019-05-10T14:31:08.808Z,17.40
2019-05-10T14:33:37.622Z,17.40
2019-05-10T14:36:06.424Z,17.40
2019-05-10T14:38:35.209Z,17.40
2019-05-10T14:41:10.700Z,17.40
2019-05-10T14:43:34.996Z,17.40
2019-05-10T14:46:03.903Z,17.30
2019-05-10T14:48:35.386Z,17.20
2019-05-10T14:51:11.199Z,17.30
2019-05-10T14:53:34.219Z,17.30
2019-05-10T14:56:08.137Z,17.30
2019-05-10T14:58:34.528Z,17.20
2019-05-10T15:01:03.638Z,17.20
2019-05-10T15:03:34.713Z,17.30
2019-05-10T15:06:03.103Z,17.40
2019-05-10T15:08:32.328Z,17.50
2019-05-10T15:11:01.310Z,17.40
2019-05-10T15:13:30.359Z,17.40
2019-05-10T15:15:59.147Z,17.40
2019-05-10T15:18:27.986Z,17.30
2019-05-10T15:20:56.774Z,17.30
2019-05-10T15:23:25.536Z,17.30
2019-05-10T15:25:57.609Z,17.20
2019-05-10T15:28:25.054Z,17.20
2019-05-10T15:30:53.819Z,17.10
2019-05-10T15:33:22.904Z,16.90
2019-05-10T15:35:53.941Z,17.00
2019-05-10T15:38:23.087Z,17.00
2019-05-10T15:40:51.923Z,17.00
2019-05-10T15:43:20.841Z,17.00
2019-05-10T15:45:52.293Z,17.00
2019-05-10T15:48:20.481Z,16.80
2019-05-10T15:50:49.462Z,16.60
2019-05-10T15:53:19.575Z,16.50
2019-05-10T15:55:48.884Z,16.50
2019-05-10T15:58:17.802Z,16.40
2019-05-10T16:00:47.017Z,16.40
2019-05-10T16:03:15.795Z,16.40
2019-05-10T16:05:59.897Z,16.40
2019-05-10T16:08:23.888Z,16.20
2019-05-10T16:10:49.822Z,16.10
2019-05-10T16:13:23.305Z,16.00
2019-05-10T16:15:51.688Z,16.00
2019-05-10T16:18:19.679Z,16.10
2019-05-10T16:20:48.504Z,16.20
2019-05-10T16:23:17.609Z,16.30
2019-05-10T16:25:48.518Z,16.30
2019-05-10T16:28:20.762Z,16.30
2019-05-10T16:30:47.340Z,16.20
2019-05-10T16:33:18.251Z,16.00
2019-05-10T16:35:49.519Z,15.90
2019-05-10T16:38:17.456Z,15.70
2019-05-10T16:40:57.365Z,15.50
2019-05-10T16:43:23.934Z,15.40
2019-05-10T16:45:47.873Z,15.20
2019-05-10T16:48:16.976Z,15.10
2019-05-10T16:50:45.808Z,15.00
2019-05-10T16:53:14.812Z,15.00
2019-05-10T16:55:43.590Z,15.00
2019-05-10T16:58:15.026Z,15.00
2019-05-10T17:00:46.280Z,14.90
2019-05-10T17:03:18.557Z,14.90
2019-05-10T17:05:53.095Z,14.90
2019-05-10T17:08:16.588Z,14.90
2019-05-10T17:10:45.367Z,14.90
2019-05-10T17:13:14.190Z,15.00
2019-05-10T17:15:42.961Z,15.00
2019-05-10T17:18:17.706Z,14.90
2019-05-10T17:20:45.595Z,14.90
2019-05-10T17:23:13.043Z,14.90
2019-05-10T17:25:42.322Z,14.90
2019-05-10T17:28:11.186Z,15.00
2019-05-10T17:30:40.054Z,15.00
2019-05-10T17:33:11.971Z,15.00
2019-05-10T17:35:42.134Z,15.00
2019-05-10T17:38:14.363Z,15.10
2019-05-10T17:40:47.032Z,15.10
2019-05-10T17:43:14.170Z,15.10
2019-05-10T17:45:43.298Z,15.20
2019-05-10T17:48:13.428Z,15.20
2019-05-10T17:50:45.407Z,15.20
2019-05-10T17:53:12.964Z,15.10
2019-05-10T17:55:41.968Z,15.20
2019-05-10T17:58:10.795Z,15.10
2019-05-10T18:00:41.936Z,15.10
2019-05-10T18:03:10.805Z,15.10
2019-05-10T18:05:41.294Z,15.00
2019-05-10T18:08:14.964Z,15.00
2019-05-10T18:10:43.829Z,15.00
2019-05-10T18:13:12.700Z,14.90
2019-05-10T18:15:41.527Z,14.80
2019-05-10T18:18:10.339Z,14.80
2019-05-10T18:20:42.212Z,14.80
2019-05-10T18:23:10.639Z,14.70
2019-05-10T18:25:42.802Z,14.70
2019-05-10T18:28:17.787Z,14.70
2019-05-10T18:30:50.582Z,14.60
2019-05-10T18:33:19.721Z,14.50
2019-05-10T18:35:52.690Z,14.40
2019-05-10T18:38:19.450Z,14.30
2019-05-10T18:40:48.344Z,14.20
2019-05-10T18:43:17.172Z,14.20
2019-05-10T18:45:46.435Z,14.10
2019-05-10T18:48:15.529Z,14.00
2019-05-10T18:50:45.645Z,14.00
2019-05-10T18:53:15.392Z,13.90
2019-05-10T18:55:44.400Z,13.80
2019-05-10T18:58:13.389Z,13.80
2019-05-10T19:00:42.302Z,13.70
2019-05-10T19:03:11.244Z,13.60
2019-05-10T19:05:40.149Z,13.50
2019-05-10T19:08:09.383Z,13.50
2019-05-10T19:10:38.474Z,13.40
2019-05-10T19:13:07.993Z,13.20
2019-05-10T19:15:37.019Z,13.10
2019-05-10T19:18:06.117Z,13.00
2019-05-10T19:20:34.948Z,12.90
2019-05-10T19:23:05.503Z,12.80
2019-05-10T19:25:37.693Z,12.70
2019-05-10T19:28:05.464Z,12.70
2019-05-10T19:30:34.643Z,12.60
2019-05-10T19:33:03.564Z,12.50
2019-05-10T19:35:35.812Z,12.40
2019-05-10T19:38:02.934Z,12.30
2019-05-10T19:40:31.771Z,12.20
2019-05-10T19:43:03.739Z,12.20
2019-05-10T19:45:32.541Z,12.10
2019-05-10T19:48:01.635Z,12.00
2019-05-10T19:50:31.612Z,11.90
2019-05-10T19:53:03.804Z,11.80
2019-05-10T19:55:32.114Z,11.80
2019-05-10T19:58:01.052Z,11.70
2019-05-10T20:00:30.701Z,11.60
2019-05-10T20:03:00.106Z,11.50
2019-05-10T20:05:29.089Z,11.50
2019-05-10T20:07:57.895Z,11.40
2019-05-10T20:10:26.717Z,11.40
2019-05-10T20:12:55.579Z,11.40
2019-05-10T20:15:24.454Z,11.30
2019-05-10T20:17:53.533Z,11.20
2019-05-10T20:20:22.569Z,11.20
2019-05-10T20:22:51.868Z,11.10
2019-05-10T20:25:20.733Z,11.00
2019-05-10T20:27:49.469Z,10.90
2019-05-10T20:30:18.659Z,10.80
2019-05-10T20:32:47.499Z,10.80
2019-05-10T20:35:16.537Z,10.80
2019-05-10T20:38:00.313Z,10.80
2019-05-10T20:40:16.064Z,10.70
2019-05-10T20:42:45.120Z,10.60
2019-05-10T20:45:14.460Z,10.50
2019-05-10T20:47:43.245Z,10.40
2019-05-10T20:50:12.455Z,10.40
2019-05-10T20:52:41.536Z,10.30
2019-05-10T20:55:10.537Z,10.30
2019-05-10T20:57:39.703Z,10.20
2019-05-10T21:00:09.085Z,10.20
2019-05-10T21:02:37.888Z,10.20
2019-05-10T21:05:07.510Z,10.10
2019-05-10T21:07:36.355Z,10.00
2019-05-10T21:10:05.481Z,10.00
2019-05-10T21:12:34.274Z,9.90
2019-05-10T21:15:03.378Z,9.80
2019-05-10T21:17:32.497Z,9.80
2019-05-10T21:20:01.378Z,9.70
2019-05-10T21:22:30.263Z,9.70
2019-05-10T21:24:59.323Z,9.60
2019-05-10T21:27:28.117Z,9.60
2019-05-10T21:29:56.915Z,9.50
2019-05-10T21:32:25.978Z,9.50
2019-05-10T21:34:54.755Z,9.40
2019-05-10T21:37:23.492Z,9.40
2019-05-10T21:39:52.339Z,9.40
2019-05-10T21:42:21.092Z,9.50
2019-05-10T21:44:50.239Z,9.40
2019-05-10T21:47:19.156Z,9.40
2019-05-10T21:49:47.961Z,9.30
2019-05-10T21:52:16.986Z,9.20
2019-05-10T21:54:45.868Z,9.20
2019-05-10T21:57:14.992Z,9.20
2019-05-10T21:59:43.794Z,9.10
2019-05-10T22:02:12.644Z,9.10
2019-05-10T22:04:41.699Z,9.10
2019-05-10T22:07:10.893Z,9.10
2019-05-10T22:09:39.696Z,9.10
2019-05-10T22:12:08.936Z,9.10
2019-05-10T22:14:38.401Z,9.10
2019-05-10T22:17:07.469Z,9.10
2019-05-10T22:19:36.560Z,9.10
2019-05-10T22:22:05.400Z,9.10
2019-05-10T22:24:34.395Z,9.00
2019-05-10T22:27:03.143Z,8.90
2019-05-10T22:29:32.021Z,8.90
2019-05-10T22:32:01.035Z,8.90
2019-05-10T22:34:30.067Z,8.90
2019-05-10T22:36:59.435Z,8.80
2019-05-10T22:39:28.529Z,8.80
2019-05-10T22:41:57.350Z,8.80
2019-05-10T22:44:26.128Z,8.80
2019-05-10T22:46:54.914Z,8.80
2019-05-10T22:49:23.693Z,8.90
2019-05-10T22:51:52.497Z,8.90
2019-05-10T22:54:21.322Z,8.90
2019-05-10T22:56:50.104Z,8.90
2019-05-10T22:59:18.875Z,9.00
2019-05-10T23:01:47.670Z,9.00
2019-05-10T23:04:16.620Z,9.00
2019-05-10T23:06:45.920Z,9.00
2019-05-10T23:09:24.193Z,9.10
2019-05-10T23:11:45.535Z,9.10
2019-05-10T23:14:14.417Z,9.20
2019-05-10T23:16:43.363Z,9.20
2019-05-10T23:19:12.293Z,9.20
2019-05-10T23:21:41.430Z,9.20
2019-05-10T23:24:12.267Z,9.20
2019-05-10T23:26:41.278Z,9.30
2019-05-10T23:29:10.207Z,9.20
2019-05-10T23:31:39.038Z,9.20
2019-05-10T23:34:07.933Z,9.20
2019-05-10T23:36:36.843Z,9.20
2019-05-10T23:39:07.131Z,9.20
2019-05-10T23:41:36.052Z,9.20
2019-05-10T23:44:05.062Z,9.30
2019-05-10T23:46:33.954Z,9.30
2019-05-10T23:49:03.096Z,9.30
2019-05-10T23:51:31.976Z,9.30
2019-05-10T23:54:01.110Z,9.30
2019-05-10T23:56:30.209Z,9.40
2019-05-10T23:58:59.304Z,9.40
